Ashland City, Tennessee
Current Conditions -  °F | °C
As of 3:53 AM on Thursday 23 Oct 2014 (Local Time) from KBNA Reporting Station
Clear Clear  
Wind Chill: 44°   Ceiling: Unl
Heat Index: 44°   Visibility: 10mi
Dew Point: 41°   Wind: 3mph
Humidity: 89%   Direction: 360°N
Pressure: 30.22"   Gusts: NA
Location:  36.27°N, 87.06°W
Report Text: KBNA 230853Z 36003KT 10SM CLR 07/05 A3022 RMK AO2 SLP231 T00670050 55000
Loading
Personal Weather Stations






























Interactive Weather Map
Tropical Storm Tracking
New forecast layout! Learn more

10-Day Weather Forecast

Advertisements
Track Severe Weather on mobile